Time;durP1;ratioP1;P1;durP2;ratioP2;P2;SDS_P1;SDS_P2;PMS_P1;PMS_P2;Temp;Humidity;BMP_temperature;BMP_pressure;BME280_temperature;BME280_humidity;BME280_pressure;Samples;Min_cycle;Max_cycle;Signal;HPM_P1;HPM_P2
2023/12/08 00:02:08;;;;;;;12.60;4.93;;;9.60;52.80;;;;;;6284508;28;20037;-69
2023/12/08 00:05:10;;;;;;;7.95;4.50;;;9.60;52.90;;;;;;6264942;28;20029;-69
2023/12/08 00:08:12;;;;;;;12.55;4.88;;;9.60;53.20;;;;;;6283817;28;20111;-69
2023/12/08 00:11:13;;;;;;;12.02;4.75;;;9.60;53.40;;;;;;6281447;28;20416;-68
2023/12/08 00:14:14;;;;;;;7.13;4.20;;;9.50;54.20;;;;;;6278021;28;20525;-69
2023/12/08 00:17:16;;;;;;;9.88;4.85;;;9.50;53.70;;;;;;6284058;28;20115;-70
2023/12/08 00:20:17;;;;;;;13.43;4.22;;;9.50;54.10;;;;;;6281885;28;20108;-70
2023/12/08 00:23:19;;;;;;;9.18;4.38;;;9.40;54.40;;;;;;6278550;28;20037;-70
2023/12/08 00:26:20;;;;;;;9.00;4.50;;;9.40;54.40;;;;;;6272447;28;20052;-70
2023/12/08 00:29:21;;;;;;;7.00;3.03;;;9.40;54.40;;;;;;6275467;28;20025;-70
2023/12/08 00:32:23;;;;;;;10.35;3.30;;;9.40;54.10;;;;;;6314062;28;20064;-72
2023/12/08 00:35:23;;;;;;;8.98;2.80;;;9.60;53.90;;;;;;6285285;28;20553;-69
2023/12/08 00:38:24;;;;;;;5.15;2.88;;;9.80;53.70;;;;;;6272150;28;20067;-70
2023/12/08 00:41:25;;;;;;;4.13;2.55;;;10.00;53.50;;;;;;6314219;28;20093;-70
2023/12/08 00:44:28;;;;;;;3.67;2.25;;;10.30;53.40;;;;;;6271236;28;20103;-68
2023/12/08 00:47:31;;;;;;;3.33;1.80;;;10.40;53.40;;;;;;6272592;28;20032;-70
2023/12/08 00:50:33;;;;;;;6.93;2.20;;;10.60;53.40;;;;;;6277172;28;20082;-73
2023/12/08 00:53:34;;;;;;;3.17;1.30;;;10.80;53.60;;;;;;6275720;28;20119;-70
2023/12/08 00:56:35;;;;;;;2.63;1.17;;;10.90;53.80;;;;;;6274664;28;20392;-71
2023/12/08 00:59:35;;;;;;;3.75;0.93;;;11.00;54.00;;;;;;6282356;28;20040;-70
2023/12/08 01:02:37;;;;;;;1.20;0.65;;;11.10;54.20;;;;;;6276332;28;20071;-70
2023/12/08 01:05:38;;;;;;;0.90;0.47;;;11.20;54.30;;;;;;6269161;28;20441;-71
2023/12/08 01:08:39;;;;;;;0.20;0.20;;;11.30;54.40;;;;;;6278857;28;20048;-70
2023/12/08 01:11:40;;;;;;;6.55;2.88;;;11.50;54.60;;;;;;6279396;28;20114;-71
2023/12/08 01:14:42;;;;;;;3.47;2.50;;;11.60;54.40;;;;;;6285753;28;20119;-70
2023/12/08 01:17:43;;;;;;;1.48;0.80;;;11.60;53.80;;;;;;6280741;28;20032;-70
2023/12/08 01:20:44;;;;;;;0.80;0.40;;;11.50;54.30;;;;;;6253691;28;20124;-69
2023/12/08 01:23:45;;;;;;;1.17;0.63;;;11.60;55.10;;;;;;6280375;28;20029;-70
2023/12/08 01:26:46;;;;;;;0.43;0.30;;;11.70;55.70;;;;;;6261511;28;20629;-69
2023/12/08 01:29:47;;;;;;;0.85;0.32;;;11.90;56.10;;;;;;6277104;28;20028;-70
2023/12/08 01:32:48;;;;;;;1.02;0.45;;;12.00;56.30;;;;;;6266758;28;20126;-70
2023/12/08 01:35:49;;;;;;;0.68;0.50;;;12.10;56.30;;;;;;6275675;28;20469;-70
2023/12/08 01:38:50;;;;;;;7.70;2.75;;;12.20;56.40;;;;;;6276210;28;20349;-69
2023/12/08 01:41:51;;;;;;;7.10;2.38;;;12.20;56.20;;;;;;6280166;28;20036;-69
2023/12/08 01:44:52;;;;;;;7.53;2.97;;;12.10;55.70;;;;;;6282156;28;20066;-71
2023/12/08 01:47:52;;;;;;;9.52;3.35;;;12.00;55.60;;;;;;6283747;28;20028;-70
2023/12/08 01:50:55;;;;;;;7.47;3.28;;;11.80;55.60;;;;;;6277905;28;20140;-70
2023/12/08 01:53:57;;;;;;;14.07;4.03;;;11.70;55.70;;;;;;6276632;28;20033;-69
2023/12/08 01:56:59;;;;;;;8.70;3.47;;;11.60;56.10;;;;;;6271738;28;20087;-70
2023/12/08 02:00:00;;;;;;;5.45;3.03;;;11.40;56.40;;;;;;6284685;28;20181;-70
2023/12/08 02:03:01;;;;;;;7.80;3.60;;;11.20;56.70;;;;;;6284240;28;20644;-70
2023/12/08 02:06:03;;;;;;;9.52;2.88;;;11.20;57.10;;;;;;6279966;28;20032;-70
2023/12/08 02:09:07;;;;;;;5.50;2.33;;;11.10;57.90;;;;;;6244935;28;20032;-70
2023/12/08 02:12:09;;;;;;;3.10;1.17;;;11.00;58.60;;;;;;6284442;28;20062;-70
2023/12/08 02:15:12;;;;;;;1.20;0.98;;;10.90;59.20;;;;;;6287973;28;20055;-69
2023/12/08 02:18:14;;;;;;;1.85;1.30;;;11.00;59.60;;;;;;6282746;28;20025;-70
2023/12/08 02:21:20;;;;;;;4.05;1.10;;;11.00;60.50;;;;;;6280519;28;20500;-70
2023/12/08 02:24:23;;;;;;;2.33;1.35;;;11.10;60.60;;;;;;6282735;28;20488;-70
2023/12/08 02:27:24;;;;;;;2.35;0.90;;;11.20;60.80;;;;;;6281620;28;20037;-70
2023/12/08 02:30:25;;;;;;;1.83;1.05;;;11.20;61.60;;;;;;6284032;28;20032;-70
2023/12/08 02:33:32;;;;;;;1.50;0.98;;;11.30;61.30;;;;;;6263508;28;20425;-70
2023/12/08 02:36:35;;;;;;;2.20;1.00;;;11.30;61.60;;;;;;6289029;28;20039;-69
2023/12/08 02:39:37;;;;;;;0.75;0.60;;;11.30;61.90;;;;;;6279043;28;20112;-70
2023/12/08 02:42:39;;;;;;;3.33;0.70;;;11.40;62.00;;;;;;6288319;28;20055;-70
2023/12/08 02:45:41;;;;;;;1.92;0.88;;;11.40;62.90;;;;;;6281074;28;20025;-70
2023/12/08 02:48:42;;;;;;;2.60;1.55;;;11.50;62.40;;;;;;6286915;28;20137;-69
2023/12/08 02:51:43;;;;;;;2.03;1.27;;;11.50;62.00;;;;;;6280064;28;20033;-68
2023/12/08 02:54:43;;;;;;;2.72;1.30;;;11.50;62.00;;;;;;6278692;28;20382;-68
2023/12/08 02:57:44;;;;;;;4.47;1.95;;;11.50;61.80;;;;;;6275870;28;20028;-70
2023/12/08 03:00:45;;;;;;;4.68;2.30;;;11.50;61.90;;;;;;6286615;28;20101;-71
2023/12/08 03:03:47;;;;;;;4.32;2.33;;;11.40;62.20;;;;;;6286844;28;20028;-69
2023/12/08 03:06:48;;;;;;;3.47;1.92;;;11.30;62.50;;;;;;6267469;28;20040;-70
2023/12/08 03:09:49;;;;;;;4.07;2.17;;;11.20;62.90;;;;;;6267270;28;20082;-70
2023/12/08 03:12:50;;;;;;;6.45;2.28;;;11.10;63.60;;;;;;6283957;28;20036;-68
2023/12/08 03:15:51;;;;;;;7.20;2.53;;;11.10;64.10;;;;;;6283156;28;20029;-70
2023/12/08 03:18:53;;;;;;;5.25;2.03;;;11.00;64.30;;;;;;6291652;28;20244;-70
2023/12/08 03:21:54;;;;;;;1.52;1.20;;;11.00;64.60;;;;;;6279464;28;20639;-69
2023/12/08 03:24:55;;;;;;;2.30;1.10;;;11.00;64.90;;;;;;6262585;28;20040;-69
2023/12/08 03:27:56;;;;;;;1.77;1.25;;;11.00;65.50;;;;;;6283755;28;20029;-69
2023/12/08 03:30:57;;;;;;;2.08;1.35;;;11.00;65.50;;;;;;6280493;28;20024;-69
2023/12/08 03:33:58;;;;;;;4.03;2.25;;;11.10;65.60;;;;;;6281269;28;20116;-70
2023/12/08 03:36:59;;;;;;;5.25;2.88;;;11.20;65.30;;;;;;6275818;28;20036;-69
2023/12/08 03:40:00;;;;;;;6.05;2.55;;;11.20;64.70;;;;;;6284580;28;20040;-70
2023/12/08 03:43:01;;;;;;;2.15;1.02;;;11.10;64.30;;;;;;6282048;28;20035;-69
2023/12/08 03:46:04;;;;;;;7.30;3.38;;;11.00;64.30;;;;;;6282864;28;20480;-70
2023/12/08 03:49:07;;;;;;;3.35;1.55;;;10.80;63.90;;;;;;6286246;28;20046;-69
2023/12/08 03:52:08;;;;;;;7.03;2.60;;;10.60;64.30;;;;;;6279564;28;20098;-69
2023/12/08 03:55:08;;;;;;;5.43;3.30;;;10.50;64.70;;;;;;6275028;28;20036;-69
2023/12/08 03:58:11;;;;;;;5.75;2.72;;;10.30;64.90;;;;;;6256374;28;20059;-70
2023/12/08 04:01:18;;;;;;;4.82;2.67;;;10.20;65.20;;;;;;6283147;28;20051;-70
2023/12/08 04:04:20;;;;;;;6.60;2.70;;;10.10;65.90;;;;;;6278559;28;20067;-69
2023/12/08 04:07:20;;;;;;;7.63;3.05;;;10.00;66.20;;;;;;6271205;28;20371;-70
2023/12/08 04:10:21;;;;;;;6.22;3.40;;;9.90;66.50;;;;;;6282033;28;20043;-69
2023/12/08 04:13:22;;;;;;;10.50;4.38;;;9.80;66.70;;;;;;6280798;28;20043;-69
2023/12/08 04:16:24;;;;;;;5.88;3.20;;;9.70;66.90;;;;;;6284238;28;20043;-68
2023/12/08 04:19:25;;;;;;;7.72;4.55;;;9.70;67.20;;;;;;6277489;28;20037;-70
2023/12/08 04:22:26;;;;;;;6.35;3.80;;;9.60;67.40;;;;;;6284282;28;20024;-69
2023/12/08 04:25:28;;;;;;;8.95;3.85;;;9.50;67.60;;;;;;6277715;28;20373;-69
2023/12/08 04:28:29;;;;;;;15.77;4.57;;;9.50;67.70;;;;;;6261819;28;20332;-68
2023/12/08 04:31:30;;;;;;;7.97;3.20;;;9.30;67.80;;;;;;6262682;28;20033;-70
2023/12/08 04:34:31;;;;;;;7.75;3.85;;;9.30;68.00;;;;;;6281165;28;20024;-69
2023/12/08 04:37:32;;;;;;;7.15;3.65;;;9.30;68.20;;;;;;6277808;28;20036;-70
2023/12/08 04:40:33;;;;;;;7.18;4.28;;;9.30;68.20;;;;;;6276123;28;20060;-70
2023/12/08 04:43:34;;;;;;;7.47;3.47;;;9.30;68.30;;;;;;6263715;28;20127;-69
2023/12/08 04:46:35;;;;;;;7.45;3.78;;;9.30;68.30;;;;;;6279044;28;20043;-70
2023/12/08 04:49:36;;;;;;;11.88;3.90;;;9.30;68.50;;;;;;6279247;28;20036;-71
2023/12/08 04:52:37;;;;;;;9.25;4.28;;;9.20;68.60;;;;;;6296728;28;20129;-72
2023/12/08 04:55:38;;;;;;;10.45;3.97;;;9.20;68.70;;;;;;6278156;28;20037;-70
2023/12/08 04:58:41;;;;;;;6.10;3.35;;;9.30;68.70;;;;;;6278309;28;20055;-70
2023/12/08 05:01:42;;;;;;;9.57;3.75;;;9.20;68.60;;;;;;6276249;28;20146;-70
2023/12/08 05:04:43;;;;;;;7.05;3.17;;;9.20;68.80;;;;;;6275878;28;20095;-70
2023/12/08 05:07:44;;;;;;;5.78;2.78;;;9.10;69.00;;;;;;6275783;28;20033;-70
2023/12/08 05:10:46;;;;;;;7.00;3.47;;;9.10;69.30;;;;;;6280495;28;20036;-68
2023/12/08 05:13:46;;;;;;;8.35;3.33;;;9.10;69.40;;;;;;6273559;28;20534;-70
2023/12/08 05:16:48;;;;;;;10.40;3.35;;;9.10;69.60;;;;;;6265397;28;20074;-70
2023/12/08 05:19:49;;;;;;;5.90;3.45;;;9.10;69.70;;;;;;6264961;28;20041;-70
2023/12/08 05:22:54;;;;;;;8.35;3.70;;;9.10;69.80;;;;;;6289550;28;20077;-70
2023/12/08 05:25:55;;;;;;;8.25;3.30;;;9.10;69.80;;;;;;6291141;28;20127;-69
2023/12/08 05:28:56;;;;;;;8.07;4.55;;;9.10;69.90;;;;;;6281425;28;20032;-69
2023/12/08 05:31:58;;;;;;;9.02;3.35;;;9.10;70.00;;;;;;6279857;28;20032;-69
2023/12/08 05:34:58;;;;;;;6.53;3.22;;;9.00;70.00;;;;;;6286086;28;20030;-70
2023/12/08 05:38:00;;;;;;;5.13;2.75;;;9.00;70.10;;;;;;6288266;28;20441;-69
2023/12/08 05:41:03;;;;;;;5.70;2.70;;;9.10;70.00;;;;;;6284083;28;20046;-70
2023/12/08 05:44:04;;;;;;;6.25;3.40;;;9.10;70.00;;;;;;6267963;28;20553;-69
2023/12/08 05:47:05;;;;;;;4.70;2.97;;;9.10;70.00;;;;;;6281480;28;20028;-70
2023/12/08 05:50:06;;;;;;;5.97;3.17;;;9.10;70.10;;;;;;6292860;28;20737;-70
2023/12/08 05:53:07;;;;;;;10.68;3.15;;;9.10;70.20;;;;;;6294724;28;20066;-70
2023/12/08 05:56:08;;;;;;;4.10;2.85;;;9.10;70.20;;;;;;6291940;28;20024;-68
2023/12/08 05:59:09;;;;;;;5.20;2.83;;;9.10;70.20;;;;;;6262966;28;20025;-70
2023/12/08 06:02:13;;;;;;;7.38;2.50;;;9.10;70.20;;;;;;6286897;28;20330;-70
2023/12/08 06:05:16;;;;;;;8.15;3.33;;;9.10;70.30;;;;;;6279540;28;20496;-70
2023/12/08 06:08:17;;;;;;;3.55;2.40;;;9.10;70.50;;;;;;6278769;28;20047;-70
2023/12/08 06:11:18;;;;;;;6.65;3.60;;;9.10;70.60;;;;;;6277349;28;20444;-69
2023/12/08 06:14:19;;;;;;;7.72;3.90;;;9.10;70.60;;;;;;6280995;28;20048;-72
2023/12/08 06:17:20;;;;;;;6.72;2.80;;;9.20;70.60;;;;;;6278695;28;20040;-70
2023/12/08 06:20:21;;;;;;;3.67;2.40;;;9.20;70.70;;;;;;6270097;28;20531;-71
2023/12/08 06:23:22;;;;;;;5.40;2.78;;;9.20;70.60;;;;;;6278395;28;20036;-70
2023/12/08 06:26:24;;;;;;;3.72;2.47;;;9.20;70.70;;;;;;6280096;28;20396;-71
2023/12/08 06:29:25;;;;;;;9.75;3.13;;;9.20;70.70;;;;;;6260758;28;20572;-71
2023/12/08 06:32:29;;;;;;;7.13;3.17;;;9.30;70.70;;;;;;6276313;28;20033;-71
2023/12/08 06:35:31;;;;;;;5.80;2.80;;;9.30;70.60;;;;;;6270941;28;20033;-70
2023/12/08 06:38:33;;;;;;;5.38;2.40;;;9.30;70.50;;;;;;6283927;28;20393;-69
2023/12/08 06:41:35;;;;;;;7.55;3.00;;;9.40;70.70;;;;;;6278592;28;20082;-69
2023/12/08 06:44:36;;;;;;;10.65;3.72;;;9.40;70.60;;;;;;6274259;28;20033;-72
2023/12/08 06:47:37;;;;;;;6.10;3.45;;;9.40;70.40;;;;;;6283546;28;20095;-72
2023/12/08 06:50:40;;;;;;;5.30;3.25;;;9.40;70.40;;;;;;6281777;28;20055;-73
2023/12/08 06:53:43;;;;;;;5.25;2.97;;;9.50;70.30;;;;;;6279893;28;20535;-74
2023/12/08 06:56:45;;;;;;;14.10;3.03;;;9.50;70.20;;;;;;6283612;28;20116;-71
2023/12/08 06:59:47;;;;;;;4.03;3.17;;;9.50;70.00;;;;;;6265307;28;20493;-72
2023/12/08 07:02:48;;;;;;;6.60;3.78;;;9.50;70.00;;;;;;6252501;28;20033;-71
2023/12/08 07:05:51;;;;;;;6.60;3.00;;;9.50;70.00;;;;;;6274259;28;20037;-71
2023/12/08 07:08:52;;;;;;;5.43;3.05;;;9.50;70.00;;;;;;6283169;28;20108;-72
2023/12/08 07:11:53;;;;;;;5.13;2.90;;;9.50;70.00;;;;;;6283928;28;20091;-74
2023/12/08 07:14:57;;;;;;;6.78;3.30;;;9.60;70.10;;;;;;6272384;28;20041;-70
2023/12/08 07:17:59;;;;;;;10.13;4.20;;;9.60;70.00;;;;;;6263333;28;20056;-72
2023/12/08 07:21:00;;;;;;;9.30;3.78;;;9.60;70.00;;;;;;6272848;28;20074;-74
2023/12/08 07:24:01;;;;;;;6.03;2.88;;;9.60;70.00;;;;;;6281994;28;20060;-74
2023/12/08 07:27:02;;;;;;;6.38;3.90;;;9.60;70.00;;;;;;6275510;28;20065;-72
2023/12/08 07:30:05;;;;;;;5.38;2.95;;;9.60;70.20;;;;;;6285978;28;20037;-72
2023/12/08 07:33:05;;;;;;;5.60;2.92;;;9.60;70.30;;;;;;6282153;28;20216;-71
2023/12/08 07:36:08;;;;;;;10.27;3.53;;;9.60;70.30;;;;;;6280012;28;20051;-72
2023/12/08 07:39:10;;;;;;;5.40;3.03;;;9.60;70.10;;;;;;6271948;28;20048;-71
2023/12/08 07:42:11;;;;;;;6.32;3.50;;;9.70;70.20;;;;;;6283690;28;20030;-74
2023/12/08 07:45:12;;;;;;;8.20;3.55;;;9.70;70.10;;;;;;6275808;28;20174;-70
2023/12/08 07:48:13;;;;;;;4.07;3.10;;;9.70;70.20;;;;;;6281029;28;20028;-73
2023/12/08 07:51:14;;;;;;;8.50;3.45;;;9.70;70.20;;;;;;6275812;28;20044;-74
2023/12/08 07:54:16;;;;;;;7.13;3.20;;;9.70;70.30;;;;;;6282568;28;20047;-72
2023/12/08 07:57:18;;;;;;;12.10;4.45;;;9.70;70.30;;;;;;6266317;28;20065;-71
2023/12/08 08:00:19;;;;;;;10.00;3.30;;;9.70;70.30;;;;;;6261638;28;20037;-72
2023/12/08 08:03:23;;;;;;;4.53;3.17;;;9.80;70.20;;;;;;6266088;28;20127;-72
2023/12/08 08:06:25;;;;;;;7.55;3.42;;;9.80;70.10;;;;;;6267394;28;20572;-72
2023/12/08 08:09:25;;;;;;;6.93;3.53;;;9.90;70.10;;;;;;6271860;28;20087;-71
2023/12/08 08:12:32;;;;;;;6.97;3.22;;;9.90;70.10;;;;;;6277859;28;20020;-71
2023/12/08 08:15:33;;;;;;;7.25;3.17;;;9.80;70.00;;;;;;6275846;28;20024;-72
2023/12/08 08:18:35;;;;;;;6.97;3.10;;;9.90;70.00;;;;;;6277241;28;20048;-72
2023/12/08 08:21:39;;;;;;;5.38;3.28;;;9.90;70.00;;;;;;6271316;28;20414;-72
2023/12/08 08:24:41;;;;;;;8.73;3.53;;;9.80;70.00;;;;;;6278733;28;20609;-72
2023/12/08 08:27:43;;;;;;;6.45;3.17;;;9.80;70.00;;;;;;6282563;28;20024;-72
2023/12/08 08:30:45;;;;;;;5.75;3.75;;;9.80;69.90;;;;;;6282421;28;20017;-71
2023/12/08 08:33:45;;;;;;;8.48;3.65;;;9.80;70.00;;;;;;6281705;28;20496;-72
2023/12/08 08:36:47;;;;;;;11.00;3.70;;;9.90;70.00;;;;;;6256975;28;20048;-72
2023/12/08 08:39:49;;;;;;;6.03;3.38;;;9.90;69.90;;;;;;6282205;28;20028;-72
2023/12/08 08:42:54;;;;;;;5.68;3.22;;;9.90;69.80;;;;;;6306663;28;20183;-72
2023/12/08 08:45:57;;;;;;;10.40;4.15;;;10.10;69.80;;;;;;6284314;28;20120;-71
2023/12/08 08:48:58;;;;;;;10.05;4.70;;;10.10;69.80;;;;;;6278091;28;20033;-70
2023/12/08 08:51:59;;;;;;;9.48;3.53;;;10.20;69.70;;;;;;6266783;28;20107;-71
2023/12/08 08:55:02;;;;;;;8.98;4.72;;;10.20;69.60;;;;;;6259671;28;20036;-71
2023/12/08 08:58:03;;;;;;;16.88;6.05;;;10.20;69.60;;;;;;6278809;28;20043;-75
2023/12/08 09:01:04;;;;;;;12.70;4.50;;;10.10;69.60;;;;;;6262203;28;20025;-73
2023/12/08 09:04:05;;;;;;;10.05;4.70;;;10.10;69.80;;;;;;6315919;28;20078;-72
2023/12/08 09:07:06;;;;;;;10.90;5.60;;;10.20;69.90;;;;;;6276802;28;20031;-73
2023/12/08 09:10:09;;;;;;;8.77;4.88;;;10.20;70.00;;;;;;6273244;28;20025;-71
2023/12/08 09:13:13;;;;;;;8.45;3.90;;;10.30;70.00;;;;;;6280436;28;20051;-72
2023/12/08 09:16:16;;;;;;;9.02;4.90;;;10.30;69.80;;;;;;6270332;28;20037;-72
2023/12/08 09:19:21;;;;;;;6.40;3.35;;;10.40;69.80;;;;;;6277769;28;20055;-72
2023/12/08 09:22:22;;;;;;;6.93;3.30;;;10.40;69.70;;;;;;6281739;28;20610;-74
2023/12/08 09:25:24;;;;;;;6.95;3.65;;;10.40;69.50;;;;;;6282345;28;20514;-72
2023/12/08 09:28:26;;;;;;;5.45;3.35;;;10.50;69.50;;;;;;6280150;28;20070;-73
2023/12/08 09:31:27;;;;;;;7.35;3.80;;;10.50;69.40;;;;;;6281357;28;20063;-72
2023/12/08 09:34:29;;;;;;;11.15;4.03;;;10.50;69.40;;;;;;6277134;28;20144;-73
2023/12/08 09:37:31;;;;;;;9.80;3.45;;;10.50;70.20;;;;;;6271915;28;20064;-74
2023/12/08 09:40:34;;;;;;;10.15;4.22;;;10.40;69.40;;;;;;6276598;28;20037;-73
2023/12/08 09:43:42;;;;;;;12.05;4.00;;;10.50;69.70;;;;;;6273832;28;20060;-69
2023/12/08 09:46:45;;;;;;;8.65;4.20;;;10.50;69.60;;;;;;6275415;28;20547;-73
2023/12/08 09:49:46;;;;;;;8.15;3.72;;;10.60;69.70;;;;;;6282056;28;20111;-72
2023/12/08 09:52:48;;;;;;;13.15;4.20;;;10.60;69.60;;;;;;6282588;28;20126;-73
2023/12/08 09:55:49;;;;;;;6.95;3.38;;;10.70;69.50;;;;;;6280990;28;20068;-72
2023/12/08 09:58:51;;;;;;;8.75;3.40;;;10.80;69.50;;;;;;6278891;28;20041;-72
2023/12/08 10:01:56;;;;;;;4.88;2.92;;;10.80;69.30;;;;;;6276948;28;20044;-72
2023/12/08 10:04:58;;;;;;;5.78;3.10;;;10.90;69.20;;;;;;6283658;28;20127;-73
2023/12/08 10:08:01;;;;;;;7.88;4.07;;;10.90;69.20;;;;;;6275377;28;20043;-73
2023/12/08 10:11:05;;;;;;;9.10;4.75;;;10.90;69.10;;;;;;6267282;28;20028;-72
2023/12/08 10:14:07;;;;;;;12.25;5.93;;;10.90;69.10;;;;;;6266679;28;20048;-73
2023/12/08 10:17:07;;;;;;;16.52;6.53;;;10.90;69.00;;;;;;6262931;28;20063;-73
2023/12/08 10:20:11;;;;;;;20.25;6.57;;;11.00;69.10;;;;;;6284091;28;20040;-72
2023/12/08 10:23:21;;;;;;;15.60;6.40;;;11.00;69.10;;;;;;6284112;28;20092;-72
2023/12/08 10:26:24;;;;;;;11.50;4.70;;;11.00;69.00;;;;;;6287721;28;20110;-73
2023/12/08 10:29:33;;;;;;;10.55;4.43;;;11.00;68.90;;;;;;6314356;28;20029;-72
2023/12/08 10:32:38;;;;;;;10.77;4.22;;;11.00;68.70;;;;;;6276633;28;20075;-72
2023/12/08 10:35:41;;;;;;;8.30;3.78;;;11.00;68.70;;;;;;6280077;28;20126;-73
2023/12/08 10:38:43;;;;;;;6.78;3.30;;;11.00;68.70;;;;;;6279269;28;20047;-73
2023/12/08 10:41:47;;;;;;;20.50;7.32;;;11.00;68.70;;;;;;6255318;28;20059;-71
2023/12/08 10:44:49;;;;;;;18.35;6.45;;;11.00;68.80;;;;;;6283530;28;20389;-72
2023/12/08 10:47:54;;;;;;;14.18;6.43;;;10.90;68.50;;;;;;6273570;28;20035;-73
2023/12/08 10:50:56;;;;;;;10.30;5.03;;;10.90;68.60;;;;;;6270617;28;20052;-73
2023/12/08 10:54:00;;;;;;;11.93;5.35;;;10.90;68.70;;;;;;6280347;28;20119;-71
2023/12/08 10:57:01;;;;;;;16.58;6.35;;;10.90;68.80;;;;;;6279532;28;20476;-71
2023/12/08 11:00:16;;;;;;;14.55;4.85;;;10.90;68.70;;;;;;6274804;28;20487;-73
2023/12/08 11:03:20;;;;;;;19.45;4.75;;;10.90;68.70;;;;;;6313837;28;20433;-73
2023/12/08 11:06:33;;;;;;;9.65;5.43;;;10.90;68.80;;;;;;6284552;28;20060;-72
2023/12/08 11:09:39;;;;;;;19.08;6.22;;;10.80;69.60;;;;;;6279993;28;20029;-72
2023/12/08 11:12:46;;;;;;;10.35;4.18;;;10.80;69.10;;;;;;6274165;28;20088;-70
2023/12/08 11:16:26;;;;;;;6.13;3.63;;;10.80;69.30;;;;;;6286608;28;20472;-73
2023/12/08 11:19:28;;;;;;;9.98;4.25;;;10.80;69.20;;;;;;6286374;28;20044;-72
2023/12/08 11:22:29;;;;;;;7.95;4.15;;;10.80;69.30;;;;;;6278903;28;20238;-73
2023/12/08 11:25:40;;;;;;;11.27;4.32;;;10.90;69.30;;;;;;6285193;28;20120;-72
2023/12/08 11:28:59;;;;;;;13.93;5.32;;;10.90;69.20;;;;;;6283196;28;20206;-73
2023/12/08 11:33:12;;;;;;;8.50;4.13;;;10.90;69.20;;;;;;6287833;28;20043;-71
2023/12/08 11:36:18;;;;;;;15.18;4.07;;;10.90;69.50;;;;;;6145369;28;20294;-73
2023/12/08 11:39:35;;;;;;;14.48;5.65;;;10.90;69.60;;;;;;6160864;28;20054;-72
2023/12/08 11:42:41;;;;;;;9.52;4.57;;;11.00;69.70;;;;;;6160606;28;20048;-72
2023/12/08 11:45:42;;;;;;;11.80;4.70;;;11.00;69.80;;;;;;6128357;28;20386;-72
2023/12/08 11:48:43;;;;;;;15.85;4.32;;;11.00;69.60;;;;;;6161389;28;20045;-73
2023/12/08 11:52:16;;;;;;;12.90;5.28;;;11.10;69.50;;;;;;6143882;28;20149;-72
2023/12/08 11:55:24;;;;;;;10.75;4.70;;;11.10;69.50;;;;;;6143512;28;20047;-72
2023/12/08 11:58:34;;;;;;;17.27;3.70;;;11.10;69.60;;;;;;6157927;28;20129;-72
2023/12/08 12:01:41;;;;;;;6.50;3.50;;;11.20;69.70;;;;;;6160301;28;20770;-73
2023/12/08 12:04:43;;;;;;;23.45;6.97;;;11.30;69.50;;;;;;6160090;28;20043;-71
2023/12/08 12:07:53;;;;;;;9.63;3.92;;;11.30;69.20;;;;;;6145265;28;20046;-72
2023/12/08 12:10:59;;;;;;;9.45;4.07;;;11.30;69.10;;;;;;6263668;28;20501;-72
2023/12/08 12:14:03;;;;;;;8.35;4.32;;;11.40;69.10;;;;;;6270151;28;20117;-72
2023/12/08 12:17:06;;;;;;;6.80;3.85;;;11.40;68.90;;;;;;6276874;28;20055;-71
2023/12/08 12:20:08;;;;;;;8.80;3.67;;;11.40;68.80;;;;;;6241867;28;20128;-72
2023/12/08 12:23:13;;;;;;;6.32;3.08;;;11.40;68.80;;;;;;6262437;28;20029;-72
2023/12/08 12:26:14;;;;;;;8.27;4.13;;;11.40;68.70;;;;;;6281421;28;20234;-71
2023/12/08 12:29:15;;;;;;;8.55;4.10;;;11.50;68.60;;;;;;6275506;28;20067;-73
2023/12/08 12:32:18;;;;;;;8.73;4.90;;;11.50;68.50;;;;;;6277814;28;20040;-72
2023/12/08 12:35:19;;;;;;;6.75;4.50;;;11.50;68.40;;;;;;6278742;28;20029;-70
2023/12/08 12:38:20;;;;;;;10.18;5.28;;;11.60;68.30;;;;;;6283951;28;20078;-70
2023/12/08 12:41:25;;;;;;;9.50;5.05;;;11.60;68.10;;;;;;6276446;28;20711;-73
2023/12/08 12:44:44;;;;;;;14.23;5.05;;;11.70;68.10;;;;;;6279761;28;20535;-72
2023/12/08 12:47:45;;;;;;;;;;;11.70;68.00;;;;;;6282181;28;20037;-72
2023/12/08 12:50:46;;;;;;;8.85;4.97;;;11.70;67.70;;;;;;6264453;28;19919;-73
2023/12/08 12:53:49;;;;;;;8.27;4.95;;;11.70;67.60;;;;;;6277065;28;20409;-74
2023/12/08 12:56:50;;;;;;;18.55;7.43;;;11.70;67.70;;;;;;6295464;28;20136;-73
2023/12/08 12:59:54;;;;;;;9.55;5.95;;;11.70;67.80;;;;;;6286278;28;20044;-72
2023/12/08 13:02:55;;;;;;;11.27;5.72;;;11.70;67.70;;;;;;6278685;28;20036;-74
2023/12/08 13:05:58;;;;;;;13.88;5.40;;;11.70;67.80;;;;;;6276588;28;20032;-73
2023/12/08 13:09:05;;;;;;;13.25;6.57;;;11.70;68.00;;;;;;6277070;28;20123;-73
2023/12/08 13:12:07;;;;;;;12.60;6.67;;;11.80;68.00;;;;;;6280075;28;20033;-72
2023/12/08 13:15:08;;;;;;;11.60;5.30;;;11.80;67.80;;;;;;6268188;28;20040;-74
2023/12/08 13:18:10;;;;;;;10.02;4.55;;;11.80;67.90;;;;;;6278577;28;20128;-73
2023/12/08 13:21:11;;;;;;;8.07;4.97;;;11.70;67.80;;;;;;6277117;28;20771;-73
2023/12/08 13:24:14;;;;;;;10.02;4.82;;;11.70;67.70;;;;;;6270841;28;20598;-73
2023/12/08 13:27:15;;;;;;;10.85;4.20;;;11.70;67.80;;;;;;6280642;28;20021;-73
2023/12/08 13:30:17;;;;;;;11.52;5.63;;;11.60;68.00;;;;;;6275962;28;20024;-73
2023/12/08 13:33:21;;;;;;;11.52;5.40;;;11.60;68.10;;;;;;6262055;28;20041;-71
2023/12/08 13:36:22;;;;;;;16.05;5.60;;;11.70;68.20;;;;;;6264883;28;20044;-73
2023/12/08 13:39:23;;;;;;;10.30;5.40;;;11.70;68.10;;;;;;6279658;28;20399;-73
2023/12/08 13:42:25;;;;;;;8.60;4.97;;;11.70;68.00;;;;;;6283195;28;20152;-73
2023/12/08 13:45:27;;;;;;;12.35;4.53;;;11.70;68.10;;;;;;6279808;28;20810;-73
2023/12/08 13:48:28;;;;;;;9.13;4.88;;;11.70;68.00;;;;;;6286063;28;20044;-72
2023/12/08 13:51:32;;;;;;;13.73;5.95;;;11.80;68.10;;;;;;6278013;28;20036;-71
2023/12/08 13:54:34;;;;;;;12.40;6.30;;;11.80;68.10;;;;;;6269223;28;20052;-72
2023/12/08 13:57:35;;;;;;;12.75;6.32;;;11.80;67.90;;;;;;6284719;28;20111;-74
2023/12/08 14:00:37;;;;;;;15.07;7.00;;;11.80;67.80;;;;;;6264082;28;20493;-73
2023/12/08 14:03:38;;;;;;;18.60;7.68;;;11.80;67.80;;;;;;6276143;28;20163;-72
2023/12/08 14:06:39;;;;;;;19.75;8.40;;;11.80;67.80;;;;;;6284729;28;20024;-72
2023/12/08 14:09:40;;;;;;;14.45;7.50;;;11.80;67.80;;;;;;6287199;28;20057;-72
2023/12/08 14:12:44;;;;;;;13.18;7.03;;;11.90;67.70;;;;;;6289165;28;20032;-71
2023/12/08 14:15:45;;;;;;;15.82;7.95;;;11.90;67.60;;;;;;6268336;28;20028;-72
2023/12/08 14:18:48;;;;;;;14.80;6.25;;;11.80;67.60;;;;;;6278816;28;20603;-73
2023/12/08 14:21:51;;;;;;;15.85;6.95;;;11.80;67.50;;;;;;6285554;28;20017;-73
2023/12/08 14:24:56;;;;;;;14.77;7.60;;;11.70;67.60;;;;;;6271005;28;20044;-73
2023/12/08 14:27:58;;;;;;;11.30;5.90;;;11.70;67.80;;;;;;6283955;28;20024;-72
2023/12/08 14:30:58;;;;;;;13.63;6.68;;;11.70;68.00;;;;;;6270894;28;20499;-74
2023/12/08 14:34:00;;;;;;;13.10;6.88;;;11.70;68.00;;;;;;6280536;28;20040;-73
2023/12/08 14:37:00;;;;;;;10.05;5.28;;;11.70;68.00;;;;;;6280623;28;20475;-72
2023/12/08 14:40:03;;;;;;;9.30;5.13;;;11.80;68.00;;;;;;6273078;28;20073;-73
2023/12/08 14:43:04;;;;;;;10.32;5.22;;;11.80;67.90;;;;;;6283165;28;20081;-72
2023/12/08 14:46:06;;;;;;;16.17;6.75;;;11.80;67.80;;;;;;6278968;28;20055;-73
2023/12/08 14:49:08;;;;;;;8.77;5.80;;;11.70;68.60;;;;;;6265532;28;20029;-73
2023/12/08 14:52:11;;;;;;;9.98;5.30;;;11.80;67.80;;;;;;6249136;28;20043;-73
2023/12/08 14:55:12;;;;;;;9.23;5.28;;;11.80;67.90;;;;;;6264819;28;20116;-72
2023/12/08 14:58:15;;;;;;;10.68;4.88;;;11.80;67.90;;;;;;6287483;28;20029;-72
2023/12/08 15:01:20;;;;;;;14.15;6.28;;;11.80;67.80;;;;;;6282864;28;20036;-71
2023/12/08 15:04:30;;;;;;;9.70;5.07;;;11.80;67.70;;;;;;6280572;28;20464;-73
2023/12/08 15:07:32;;;;;;;11.93;6.50;;;11.70;67.80;;;;;;6278060;28;20031;-72
2023/12/08 15:10:33;;;;;;;11.85;6.40;;;11.70;67.80;;;;;;6286800;28;20032;-72
2023/12/08 15:13:34;;;;;;;12.52;4.97;;;11.70;67.80;;;;;;6270000;28;20523;-72
2023/12/08 15:16:37;;;;;;;6.88;4.60;;;11.70;67.90;;;;;;6262844;28;20036;-73
2023/12/08 15:19:40;;;;;;;8.68;4.20;;;11.70;67.80;;;;;;6271127;28;20071;-73
2023/12/08 15:22:41;;;;;;;13.77;6.20;;;11.70;68.60;;;;;;6265754;28;20041;-73
2023/12/08 15:25:42;;;;;;;9.68;4.57;;;11.80;67.80;;;;;;6286379;28;20039;-73
2023/12/08 15:28:52;;;;;;;12.52;3.90;;;11.80;67.60;;;;;;6270738;28;20025;-72
2023/12/08 15:31:52;;;;;;;9.40;4.28;;;11.70;67.40;;;;;;6273174;28;20023;-72
2023/12/08 15:34:54;;;;;;;9.60;5.80;;;11.70;67.40;;;;;;6269218;28;20095;-72
2023/12/08 15:37:55;;;;;;;10.20;4.65;;;11.70;67.60;;;;;;6250218;28;20416;-74
2023/12/08 15:40:55;;;;;;;9.85;4.30;;;11.70;67.70;;;;;;6274780;28;20051;-73
2023/12/08 15:43:58;;;;;;;8.88;4.25;;;11.70;67.60;;;;;;6282891;28;20036;-72
2023/12/08 15:47:00;;;;;;;8.98;4.60;;;11.60;67.70;;;;;;6268751;28;20102;-71
2023/12/08 15:50:02;;;;;;;6.40;3.67;;;11.60;67.70;;;;;;6287799;28;20111;-72
2023/12/08 15:53:03;;;;;;;10.07;4.53;;;11.60;67.90;;;;;;6275211;28;20048;-73